sensor_id;sensor_type;location;lat;lon;timestamp;temperature;humidity
12588;DHT22;6359;51.450;7.346;2023-05-07T00:00:37;13.20;99.90
12588;DHT22;6359;51.450;7.346;2023-05-07T00:03:05;13.10;99.90
12588;DHT22;6359;51.450;7.346;2023-05-07T00:05:32;13.20;99.90
12588;DHT22;6359;51.450;7.346;2023-05-07T00:07:59;13.10;99.90
12588;DHT22;6359;51.450;7.346;2023-05-07T00:10:26;13.20;99.90
12588;DHT22;6359;51.450;7.346;2023-05-07T00:12:53;13.20;99.90
12588;DHT22;6359;51.450;7.346;2023-05-07T00:15:20;13.20;99.90
12588;DHT22;6359;51.450;7.346;2023-05-07T00:17:47;13.20;99.90
12588;DHT22;6359;51.450;7.346;2023-05-07T00:20:15;13.20;99.90
12588;DHT22;6359;51.450;7.346;2023-05-07T00:22:42;13.20;99.90
12588;DHT22;6359;51.450;7.346;2023-05-07T00:25:09;13.20;99.90
12588;DHT22;6359;51.450;7.346;2023-05-07T00:27:36;13.20;99.90
12588;DHT22;6359;51.450;7.346;2023-05-07T00:30:04;13.20;99.90
12588;DHT22;6359;51.450;7.346;2023-05-07T00:32:31;13.20;99.90
12588;DHT22;6359;51.450;7.346;2023-05-07T00:34:58;13.20;99.90
12588;DHT22;6359;51.450;7.346;2023-05-07T00:37:27;13.20;99.90
12588;DHT22;6359;51.450;7.346;2023-05-07T00:39:54;13.20;99.90
12588;DHT22;6359;51.450;7.346;2023-05-07T00:42:21;13.30;99.90
12588;DHT22;6359;51.450;7.346;2023-05-07T00:44:48;13.20;99.90
12588;DHT22;6359;51.450;7.346;2023-05-07T00:47:15;13.20;99.90
12588;DHT22;6359;51.450;7.346;2023-05-07T00:49:43;13.30;99.90
12588;DHT22;6359;51.450;7.346;2023-05-07T00:52:13;13.30;99.90
12588;DHT22;6359;51.450;7.346;2023-05-07T00:54:42;13.40;99.90
12588;DHT22;6359;51.450;7.346;2023-05-07T00:57:10;13.40;99.90
12588;DHT22;6359;51.450;7.346;2023-05-07T00:59:37;13.40;99.90
12588;DHT22;6359;51.450;7.346;2023-05-07T01:02:05;13.50;99.90
12588;DHT22;6359;51.450;7.346;2023-05-07T01:04:32;13.50;99.90
12588;DHT22;6359;51.450;7.346;2023-05-07T01:06:59;13.50;99.90
12588;DHT22;6359;51.450;7.346;2023-05-07T01:09:28;13.40;99.90
12588;DHT22;6359;51.450;7.346;2023-05-07T01:11:57;13.40;99.90
12588;DHT22;6359;51.450;7.346;2023-05-07T01:14:25;13.40;99.90
12588;DHT22;6359;51.450;7.346;2023-05-07T01:16:52;13.40;99.90
12588;DHT22;6359;51.450;7.346;2023-05-07T01:19:19;13.40;99.90
12588;DHT22;6359;51.450;7.346;2023-05-07T01:21:48;13.50;99.90
12588;DHT22;6359;51.450;7.346;2023-05-07T01:24:18;13.40;99.90
12588;DHT22;6359;51.450;7.346;2023-05-07T01:26:45;13.40;99.90
12588;DHT22;6359;51.450;7.346;2023-05-07T01:29:12;13.40;99.90
12588;DHT22;6359;51.450;7.346;2023-05-07T01:31:40;13.30;99.90
12588;DHT22;6359;51.450;7.346;2023-05-07T01:34:08;13.30;99.90
12588;DHT22;6359;51.450;7.346;2023-05-07T01:36:37;13.30;99.90
12588;DHT22;6359;51.450;7.346;2023-05-07T01:39:06;13.30;99.90
12588;DHT22;6359;51.450;7.346;2023-05-07T01:41:35;13.20;99.90
12588;DHT22;6359;51.450;7.346;2023-05-07T01:44:03;13.20;99.90
12588;DHT22;6359;51.450;7.346;2023-05-07T01:46:31;13.20;99.90
12588;DHT22;6359;51.450;7.346;2023-05-07T01:48:58;13.10;99.90
12588;DHT22;6359;51.450;7.346;2023-05-07T01:51:25;13.10;99.90
12588;DHT22;6359;51.450;7.346;2023-05-07T01:53:53;13.10;99.90
12588;DHT22;6359;51.450;7.346;2023-05-07T01:56:20;13.10;99.90
12588;DHT22;6359;51.450;7.346;2023-05-07T01:58:48;13.00;99.90
12588;DHT22;6359;51.450;7.346;2023-05-07T02:01:16;13.20;99.90
12588;DHT22;6359;51.450;7.346;2023-05-07T02:03:44;13.00;99.90
12588;DHT22;6359;51.450;7.346;2023-05-07T02:06:10;13.00;99.90
12588;DHT22;6359;51.450;7.346;2023-05-07T02:08:37;13.00;99.90
12588;DHT22;6359;51.450;7.346;2023-05-07T02:11:04;13.00;99.90
12588;DHT22;6359;51.450;7.346;2023-05-07T02:13:33;12.90;99.90
12588;DHT22;6359;51.450;7.346;2023-05-07T02:16:03;12.90;99.90
12588;DHT22;6359;51.450;7.346;2023-05-07T02:18:30;12.80;99.90
12588;DHT22;6359;51.450;7.346;2023-05-07T02:20:57;12.80;99.90
12588;DHT22;6359;51.450;7.346;2023-05-07T02:23:24;12.80;99.90
12588;DHT22;6359;51.450;7.346;2023-05-07T02:25:51;12.80;99.90
12588;DHT22;6359;51.450;7.346;2023-05-07T02:28:18;12.70;99.90
12588;DHT22;6359;51.450;7.346;2023-05-07T02:30:45;12.70;99.90
12588;DHT22;6359;51.450;7.346;2023-05-07T02:33:13;12.70;99.90
12588;DHT22;6359;51.450;7.346;2023-05-07T02:35:40;12.70;99.90
12588;DHT22;6359;51.450;7.346;2023-05-07T02:38:07;12.70;99.90
12588;DHT22;6359;51.450;7.346;2023-05-07T02:40:36;12.60;99.90
12588;DHT22;6359;51.450;7.346;2023-05-07T02:43:04;12.60;99.90
12588;DHT22;6359;51.450;7.346;2023-05-07T02:45:31;12.50;99.90
12588;DHT22;6359;51.450;7.346;2023-05-07T02:47:58;12.50;99.90
12588;DHT22;6359;51.450;7.346;2023-05-07T02:50:26;12.50;99.90
12588;DHT22;6359;51.450;7.346;2023-05-07T02:52:53;12.50;99.90
12588;DHT22;6359;51.450;7.346;2023-05-07T02:55:20;12.50;99.90
12588;DHT22;6359;51.450;7.346;2023-05-07T02:57:47;12.40;99.90
12588;DHT22;6359;51.450;7.346;2023-05-07T03:00:16;12.40;99.90
12588;DHT22;6359;51.450;7.346;2023-05-07T03:02:43;12.30;99.90
12588;DHT22;6359;51.450;7.346;2023-05-07T03:05:10;12.20;99.90
12588;DHT22;6359;51.450;7.346;2023-05-07T03:07:39;12.30;99.90
12588;DHT22;6359;51.450;7.346;2023-05-07T03:10:10;12.20;99.90
12588;DHT22;6359;51.450;7.346;2023-05-07T03:12:39;12.20;99.90
12588;DHT22;6359;51.450;7.346;2023-05-07T03:15:07;12.20;99.90
12588;DHT22;6359;51.450;7.346;2023-05-07T03:17:34;12.20;99.90
12588;DHT22;6359;51.450;7.346;2023-05-07T03:20:01;12.20;99.90
12588;DHT22;6359;51.450;7.346;2023-05-07T03:22:28;12.10;99.90
12588;DHT22;6359;51.450;7.346;2023-05-07T03:24:57;12.20;99.90
12588;DHT22;6359;51.450;7.346;2023-05-07T03:27:25;12.20;99.90
12588;DHT22;6359;51.450;7.346;2023-05-07T03:29:52;12.20;99.90
12588;DHT22;6359;51.450;7.346;2023-05-07T03:32:19;12.20;99.90
12588;DHT22;6359;51.450;7.346;2023-05-07T03:34:45;12.10;99.90
12588;DHT22;6359;51.450;7.346;2023-05-07T03:37:12;12.20;99.90
12588;DHT22;6359;51.450;7.346;2023-05-07T03:39:39;12.20;99.90
12588;DHT22;6359;51.450;7.346;2023-05-07T03:42:07;12.20;99.90
12588;DHT22;6359;51.450;7.346;2023-05-07T03:44:34;12.20;99.90
12588;DHT22;6359;51.450;7.346;2023-05-07T03:47:02;12.10;99.90
12588;DHT22;6359;51.450;7.346;2023-05-07T03:49:29;12.20;99.90
12588;DHT22;6359;51.450;7.346;2023-05-07T03:51:56;12.00;99.90
12588;DHT22;6359;51.450;7.346;2023-05-07T03:54:23;12.10;99.90
12588;DHT22;6359;51.450;7.346;2023-05-07T03:56:50;12.20;99.90
12588;DHT22;6359;51.450;7.346;2023-05-07T03:59:18;12.20;99.90
12588;DHT22;6359;51.450;7.346;2023-05-07T04:01:45;12.10;99.90
12588;DHT22;6359;51.450;7.346;2023-05-07T04:04:12;12.20;99.90
12588;DHT22;6359;51.450;7.346;2023-05-07T04:06:39;12.20;99.90
12588;DHT22;6359;51.450;7.346;2023-05-07T04:09:06;12.20;99.90
12588;DHT22;6359;51.450;7.346;2023-05-07T04:11:34;12.20;99.90
12588;DHT22;6359;51.450;7.346;2023-05-07T04:14:01;12.30;99.90
12588;DHT22;6359;51.450;7.346;2023-05-07T04:16:29;12.20;99.90
12588;DHT22;6359;51.450;7.346;2023-05-07T04:18:56;12.20;99.90
12588;DHT22;6359;51.450;7.346;2023-05-07T04:21:23;12.20;99.90
12588;DHT22;6359;51.450;7.346;2023-05-07T04:23:51;12.20;99.90
12588;DHT22;6359;51.450;7.346;2023-05-07T04:26:18;12.30;99.90
12588;DHT22;6359;51.450;7.346;2023-05-07T04:28:46;12.50;99.90
12588;DHT22;6359;51.450;7.346;2023-05-07T04:31:13;12.60;99.90
12588;DHT22;6359;51.450;7.346;2023-05-07T04:33:42;12.70;99.90
12588;DHT22;6359;51.450;7.346;2023-05-07T04:36:09;12.70;99.90
12588;DHT22;6359;51.450;7.346;2023-05-07T04:38:36;12.80;99.90
12588;DHT22;6359;51.450;7.346;2023-05-07T04:41:05;12.90;99.90
12588;DHT22;6359;51.450;7.346;2023-05-07T04:43:32;13.00;99.90
12588;DHT22;6359;51.450;7.346;2023-05-07T04:45:59;13.10;99.90
12588;DHT22;6359;51.450;7.346;2023-05-07T04:48:26;13.10;99.90
12588;DHT22;6359;51.450;7.346;2023-05-07T04:50:55;13.30;99.90
12588;DHT22;6359;51.450;7.346;2023-05-07T04:53:22;13.20;99.90
12588;DHT22;6359;51.450;7.346;2023-05-07T04:55:55;13.30;99.90
12588;DHT22;6359;51.450;7.346;2023-05-07T04:58:22;13.40;99.90
12588;DHT22;6359;51.450;7.346;2023-05-07T05:00:49;13.50;99.90
12588;DHT22;6359;51.450;7.346;2023-05-07T05:03:16;13.60;99.90
12588;DHT22;6359;51.450;7.346;2023-05-07T05:05:43;13.80;99.90
12588;DHT22;6359;51.450;7.346;2023-05-07T05:08:11;13.90;99.90
12588;DHT22;6359;51.450;7.346;2023-05-07T05:10:38;14.10;99.90
12588;DHT22;6359;51.450;7.346;2023-05-07T05:13:07;14.40;99.90
12588;DHT22;6359;51.450;7.346;2023-05-07T05:15:34;14.40;99.90
12588;DHT22;6359;51.450;7.346;2023-05-07T05:18:01;14.40;99.90
12588;DHT22;6359;51.450;7.346;2023-05-07T05:20:28;14.50;99.90
12588;DHT22;6359;51.450;7.346;2023-05-07T05:22:55;14.50;99.90
12588;DHT22;6359;51.450;7.346;2023-05-07T05:25:23;14.60;99.90
12588;DHT22;6359;51.450;7.346;2023-05-07T05:27:50;14.60;99.90
12588;DHT22;6359;51.450;7.346;2023-05-07T05:30:17;14.70;99.90
12588;DHT22;6359;51.450;7.346;2023-05-07T05:32:44;14.80;99.90
12588;DHT22;6359;51.450;7.346;2023-05-07T05:35:11;14.90;99.90
12588;DHT22;6359;51.450;7.346;2023-05-07T05:37:38;15.10;99.90
12588;DHT22;6359;51.450;7.346;2023-05-07T05:40:06;15.30;99.90
12588;DHT22;6359;51.450;7.346;2023-05-07T05:42:34;15.40;99.90
12588;DHT22;6359;51.450;7.346;2023-05-07T05:45:01;15.60;99.90
12588;DHT22;6359;51.450;7.346;2023-05-07T05:47:28;15.80;99.90
12588;DHT22;6359;51.450;7.346;2023-05-07T05:49:56;16.10;99.90
12588;DHT22;6359;51.450;7.346;2023-05-07T05:52:24;16.50;99.90
12588;DHT22;6359;51.450;7.346;2023-05-07T05:54:51;17.00;99.90
12588;DHT22;6359;51.450;7.346;2023-05-07T05:57:18;17.70;99.90
12588;DHT22;6359;51.450;7.346;2023-05-07T05:59:46;18.10;99.90
12588;DHT22;6359;51.450;7.346;2023-05-07T06:02:13;18.20;99.90
12588;DHT22;6359;51.450;7.346;2023-05-07T06:04:40;18.70;99.90
12588;DHT22;6359;51.450;7.346;2023-05-07T06:07:08;19.20;99.90
12588;DHT22;6359;51.450;7.346;2023-05-07T06:09:35;19.70;99.90
12588;DHT22;6359;51.450;7.346;2023-05-07T06:12:02;19.90;99.90
12588;DHT22;6359;51.450;7.346;2023-05-07T06:14:29;19.80;99.90
12588;DHT22;6359;51.450;7.346;2023-05-07T06:16:57;19.20;99.90
12588;DHT22;6359;51.450;7.346;2023-05-07T06:19:24;18.70;99.90
12588;DHT22;6359;51.450;7.346;2023-05-07T06:21:53;18.60;99.90
12588;DHT22;6359;51.450;7.346;2023-05-07T06:24:21;18.50;99.90
12588;DHT22;6359;51.450;7.346;2023-05-07T06:26:48;18.40;99.90
12588;DHT22;6359;51.450;7.346;2023-05-07T06:29:15;18.40;99.90
12588;DHT22;6359;51.450;7.346;2023-05-07T06:31:42;18.40;99.90
12588;DHT22;6359;51.450;7.346;2023-05-07T06:34:11;18.40;99.90
12588;DHT22;6359;51.450;7.346;2023-05-07T06:36:39;18.10;99.90
12588;DHT22;6359;51.450;7.346;2023-05-07T06:39:06;18.00;99.90
12588;DHT22;6359;51.450;7.346;2023-05-07T06:41:33;17.80;99.90
12588;DHT22;6359;51.450;7.346;2023-05-07T06:44:01;17.70;99.90
12588;DHT22;6359;51.450;7.346;2023-05-07T06:46:28;17.80;99.90
12588;DHT22;6359;51.450;7.346;2023-05-07T06:48:55;17.70;99.90
12588;DHT22;6359;51.450;7.346;2023-05-07T06:51:24;17.70;99.90
12588;DHT22;6359;51.450;7.346;2023-05-07T06:53:52;17.80;99.90
12588;DHT22;6359;51.450;7.346;2023-05-07T06:56:19;18.00;99.90
12588;DHT22;6359;51.450;7.346;2023-05-07T06:58:46;18.20;99.90
12588;DHT22;6359;51.450;7.346;2023-05-07T07:01:13;18.20;99.90
12588;DHT22;6359;51.450;7.346;2023-05-07T07:03:40;18.30;99.90
12588;DHT22;6359;51.450;7.346;2023-05-07T07:06:07;18.20;99.90
12588;DHT22;6359;51.450;7.346;2023-05-07T07:08:35;18.40;99.90
12588;DHT22;6359;51.450;7.346;2023-05-07T07:11:04;18.70;99.90
12588;DHT22;6359;51.450;7.346;2023-05-07T07:13:31;18.70;99.90
12588;DHT22;6359;51.450;7.346;2023-05-07T07:15:58;19.00;99.90
12588;DHT22;6359;51.450;7.346;2023-05-07T07:18:25;19.20;99.90
12588;DHT22;6359;51.450;7.346;2023-05-07T07:20:52;19.60;99.90
12588;DHT22;6359;51.450;7.346;2023-05-07T07:23:19;20.00;99.90
12588;DHT22;6359;51.450;7.346;2023-05-07T07:25:47;20.30;99.90
12588;DHT22;6359;51.450;7.346;2023-05-07T07:28:14;20.30;99.90
12588;DHT22;6359;51.450;7.346;2023-05-07T07:30:41;20.60;99.90
12588;DHT22;6359;51.450;7.346;2023-05-07T07:33:08;21.10;99.90
12588;DHT22;6359;51.450;7.346;2023-05-07T07:35:35;21.00;99.90
12588;DHT22;6359;51.450;7.346;2023-05-07T07:38:02;20.90;99.90
12588;DHT22;6359;51.450;7.346;2023-05-07T07:40:29;20.70;99.90
12588;DHT22;6359;51.450;7.346;2023-05-07T07:42:57;20.40;99.90
12588;DHT22;6359;51.450;7.346;2023-05-07T07:45:26;20.20;99.90
12588;DHT22;6359;51.450;7.346;2023-05-07T07:47:53;20.10;99.90
12588;DHT22;6359;51.450;7.346;2023-05-07T07:50:20;19.80;99.90
12588;DHT22;6359;51.450;7.346;2023-05-07T07:52:48;19.70;99.90
12588;DHT22;6359;51.450;7.346;2023-05-07T07:55:15;19.80;99.90
12588;DHT22;6359;51.450;7.346;2023-05-07T07:57:46;19.80;99.90
12588;DHT22;6359;51.450;7.346;2023-05-07T08:00:16;19.80;99.90
12588;DHT22;6359;51.450;7.346;2023-05-07T08:02:43;20.10;99.90
12588;DHT22;6359;51.450;7.346;2023-05-07T08:05:10;20.10;99.90
12588;DHT22;6359;51.450;7.346;2023-05-07T08:07:37;20.20;99.90
12588;DHT22;6359;51.450;7.346;2023-05-07T08:10:04;20.30;99.90
12588;DHT22;6359;51.450;7.346;2023-05-07T08:12:31;20.40;99.90
12588;DHT22;6359;51.450;7.346;2023-05-07T08:14:58;20.30;99.90
12588;DHT22;6359;51.450;7.346;2023-05-07T08:17:26;20.10;99.90
12588;DHT22;6359;51.450;7.346;2023-05-07T08:19:53;19.90;99.90
12588;DHT22;6359;51.450;7.346;2023-05-07T08:22:20;20.10;99.90
12588;DHT22;6359;51.450;7.346;2023-05-07T08:24:48;20.30;99.90
12588;DHT22;6359;51.450;7.346;2023-05-07T08:27:15;20.50;99.90
12588;DHT22;6359;51.450;7.346;2023-05-07T08:29:42;20.50;99.90
12588;DHT22;6359;51.450;7.346;2023-05-07T08:32:12;20.90;99.90
12588;DHT22;6359;51.450;7.346;2023-05-07T08:34:41;21.60;99.90
12588;DHT22;6359;51.450;7.346;2023-05-07T08:37:08;22.00;99.90
12588;DHT22;6359;51.450;7.346;2023-05-07T08:39:35;22.10;99.90
12588;DHT22;6359;51.450;7.346;2023-05-07T08:42:04;22.10;99.90
12588;DHT22;6359;51.450;7.346;2023-05-07T08:44:33;22.70;99.90
12588;DHT22;6359;51.450;7.346;2023-05-07T08:47:01;23.60;99.90
12588;DHT22;6359;51.450;7.346;2023-05-07T08:49:28;24.80;99.90
12588;DHT22;6359;51.450;7.346;2023-05-07T08:51:57;25.60;99.90
12588;DHT22;6359;51.450;7.346;2023-05-07T08:54:25;25.90;99.90
12588;DHT22;6359;51.450;7.346;2023-05-07T08:56:52;25.70;99.90
12588;DHT22;6359;51.450;7.346;2023-05-07T08:59:19;26.50;99.90
12588;DHT22;6359;51.450;7.346;2023-05-07T09:01:46;26.30;99.90
12588;DHT22;6359;51.450;7.346;2023-05-07T09:04:13;26.30;99.90
12588;DHT22;6359;51.450;7.346;2023-05-07T09:06:41;26.60;99.90
12588;DHT22;6359;51.450;7.346;2023-05-07T09:09:09;27.10;99.90
12588;DHT22;6359;51.450;7.346;2023-05-07T09:11:40;26.80;99.90
12588;DHT22;6359;51.450;7.346;2023-05-07T09:14:08;26.80;99.90
12588;DHT22;6359;51.450;7.346;2023-05-07T09:16:34;26.20;99.90
12588;DHT22;6359;51.450;7.346;2023-05-07T09:19:02;25.50;99.90
12588;DHT22;6359;51.450;7.346;2023-05-07T09:21:29;24.90;99.90
12588;DHT22;6359;51.450;7.346;2023-05-07T09:23:57;25.10;99.90
12588;DHT22;6359;51.450;7.346;2023-05-07T09:26:25;25.20;99.90
12588;DHT22;6359;51.450;7.346;2023-05-07T09:28:53;25.20;99.90
12588;DHT22;6359;51.450;7.346;2023-05-07T09:31:20;25.50;99.90
12588;DHT22;6359;51.450;7.346;2023-05-07T09:33:48;25.80;99.90
12588;DHT22;6359;51.450;7.346;2023-05-07T09:36:16;27.30;99.90
12588;DHT22;6359;51.450;7.346;2023-05-07T09:38:43;28.00;99.90
12588;DHT22;6359;51.450;7.346;2023-05-07T09:41:11;28.50;99.90
12588;DHT22;6359;51.450;7.346;2023-05-07T09:43:40;29.00;99.90
12588;DHT22;6359;51.450;7.346;2023-05-07T09:46:09;29.10;99.90
12588;DHT22;6359;51.450;7.346;2023-05-07T09:48:39;29.60;99.90
12588;DHT22;6359;51.450;7.346;2023-05-07T09:51:12;29.10;99.90
12588;DHT22;6359;51.450;7.346;2023-05-07T09:53:42;29.10;99.90
12588;DHT22;6359;51.450;7.346;2023-05-07T09:56:12;29.00;99.90
12588;DHT22;6359;51.450;7.346;2023-05-07T09:58:42;28.10;99.90
12588;DHT22;6359;51.450;7.346;2023-05-07T10:01:11;28.00;99.90
12588;DHT22;6359;51.450;7.346;2023-05-07T10:03:40;27.40;99.90
12588;DHT22;6359;51.450;7.346;2023-05-07T10:06:08;27.10;99.90
12588;DHT22;6359;51.450;7.346;2023-05-07T10:08:35;26.60;99.90
12588;DHT22;6359;51.450;7.346;2023-05-07T10:11:03;26.00;99.90
12588;DHT22;6359;51.450;7.346;2023-05-07T10:13:31;26.20;99.90
12588;DHT22;6359;51.450;7.346;2023-05-07T10:16:01;26.00;99.90
12588;DHT22;6359;51.450;7.346;2023-05-07T10:18:30;25.70;99.90
12588;DHT22;6359;51.450;7.346;2023-05-07T10:21:04;25.90;99.90
12588;DHT22;6359;51.450;7.346;2023-05-07T10:23:33;25.90;99.90
12588;DHT22;6359;51.450;7.346;2023-05-07T10:26:03;26.60;99.90
12588;DHT22;6359;51.450;7.346;2023-05-07T10:28:33;27.10;99.90
12588;DHT22;6359;51.450;7.346;2023-05-07T10:31:15;27.80;99.90
12588;DHT22;6359;51.450;7.346;2023-05-07T10:33:46;27.70;99.90
12588;DHT22;6359;51.450;7.346;2023-05-07T10:36:13;27.70;99.90
12588;DHT22;6359;51.450;7.346;2023-05-07T10:38:41;27.60;99.90
12588;DHT22;6359;51.450;7.346;2023-05-07T10:41:08;27.10;99.90
12588;DHT22;6359;51.450;7.346;2023-05-07T10:43:42;26.90;99.90
12588;DHT22;6359;51.450;7.346;2023-05-07T10:46:14;26.50;99.90
12588;DHT22;6359;51.450;7.346;2023-05-07T10:49:06;26.00;99.90
12588;DHT22;6359;51.450;7.346;2023-05-07T10:51:34;25.60;99.90
12588;DHT22;6359;51.450;7.346;2023-05-07T10:54:21;25.10;99.90
12588;DHT22;6359;51.450;7.346;2023-05-07T10:56:49;24.70;99.90
12588;DHT22;6359;51.450;7.346;2023-05-07T10:59:34;24.80;99.90
12588;DHT22;6359;51.450;7.346;2023-05-07T11:02:09;25.20;99.90
12588;DHT22;6359;51.450;7.346;2023-05-07T11:04:37;25.30;99.90
12588;DHT22;6359;51.450;7.346;2023-05-07T11:07:31;25.20;99.90
12588;DHT22;6359;51.450;7.346;2023-05-07T11:10:05;24.80;99.90
12588;DHT22;6359;51.450;7.346;2023-05-07T11:13:03;24.70;99.90
12588;DHT22;6359;51.450;7.346;2023-05-07T11:15:40;24.60;99.90
12588;DHT22;6359;51.450;7.346;2023-05-07T11:18:11;24.10;99.90
12588;DHT22;6359;51.450;7.346;2023-05-07T11:20:52;24.00;99.90
12588;DHT22;6359;51.450;7.346;2023-05-07T11:23:57;23.50;99.90
12588;DHT22;6359;51.450;7.346;2023-05-07T11:26:26;23.10;99.90
12588;DHT22;6359;51.450;7.346;2023-05-07T11:28:53;23.00;99.90
12588;DHT22;6359;51.450;7.346;2023-05-07T11:31:23;22.80;99.90
12588;DHT22;6359;51.450;7.346;2023-05-07T11:33:53;22.80;99.90
12588;DHT22;6359;51.450;7.346;2023-05-07T11:36:22;22.80;99.90
12588;DHT22;6359;51.450;7.346;2023-05-07T11:38:49;22.70;99.90
12588;DHT22;6359;51.450;7.346;2023-05-07T11:41:16;22.60;99.90
12588;DHT22;6359;51.450;7.346;2023-05-07T11:43:55;22.50;99.90
12588;DHT22;6359;51.450;7.346;2023-05-07T11:46:22;22.60;99.90
12588;DHT22;6359;51.450;7.346;2023-05-07T11:48:51;22.50;99.90
12588;DHT22;6359;51.450;7.346;2023-05-07T11:51:22;22.50;99.90
12588;DHT22;6359;51.450;7.346;2023-05-07T11:53:52;22.20;99.90
12588;DHT22;6359;51.450;7.346;2023-05-07T11:56:19;22.50;99.90
12588;DHT22;6359;51.450;7.346;2023-05-07T11:58:47;22.70;99.90
12588;DHT22;6359;51.450;7.346;2023-05-07T12:01:15;22.90;99.90
12588;DHT22;6359;51.450;7.346;2023-05-07T12:03:45;22.80;99.90
12588;DHT22;6359;51.450;7.346;2023-05-07T12:06:15;22.90;99.90
12588;DHT22;6359;51.450;7.346;2023-05-07T12:08:43;22.90;99.90
12588;DHT22;6359;51.450;7.346;2023-05-07T12:11:13;22.60;99.90
12588;DHT22;6359;51.450;7.346;2023-05-07T12:13:41;22.70;99.90
12588;DHT22;6359;51.450;7.346;2023-05-07T12:16:08;22.60;99.90
12588;DHT22;6359;51.450;7.346;2023-05-07T12:18:36;22.40;99.90
12588;DHT22;6359;51.450;7.346;2023-05-07T12:21:05;22.50;99.90
12588;DHT22;6359;51.450;7.346;2023-05-07T12:23:35;22.40;99.90
12588;DHT22;6359;51.450;7.346;2023-05-07T12:26:03;22.30;99.90
12588;DHT22;6359;51.450;7.346;2023-05-07T12:28:32;22.50;99.90
12588;DHT22;6359;51.450;7.346;2023-05-07T12:31:02;22.60;99.90
12588;DHT22;6359;51.450;7.346;2023-05-07T12:33:30;22.80;99.90
12588;DHT22;6359;51.450;7.346;2023-05-07T12:35:58;22.70;99.90
12588;DHT22;6359;51.450;7.346;2023-05-07T12:38:36;22.60;99.90
12588;DHT22;6359;51.450;7.346;2023-05-07T12:41:03;22.50;99.90
12588;DHT22;6359;51.450;7.346;2023-05-07T12:43:30;22.80;99.90
12588;DHT22;6359;51.450;7.346;2023-05-07T12:46:00;23.10;99.90
12588;DHT22;6359;51.450;7.346;2023-05-07T12:48:28;23.00;99.90
12588;DHT22;6359;51.450;7.346;2023-05-07T12:50:56;23.00;99.90
12588;DHT22;6359;51.450;7.346;2023-05-07T12:53:24;22.80;99.90
12588;DHT22;6359;51.450;7.346;2023-05-07T12:55:55;22.80;99.90
12588;DHT22;6359;51.450;7.346;2023-05-07T12:58:25;22.90;99.90
12588;DHT22;6359;51.450;7.346;2023-05-07T13:00:53;22.90;99.90
12588;DHT22;6359;51.450;7.346;2023-05-07T13:03:25;22.60;99.90
12588;DHT22;6359;51.450;7.346;2023-05-07T13:05:53;22.40;99.90
12588;DHT22;6359;51.450;7.346;2023-05-07T13:08:28;22.20;99.90
12588;DHT22;6359;51.450;7.346;2023-05-07T13:10:58;21.80;99.90
12588;DHT22;6359;51.450;7.346;2023-05-07T13:13:28;21.80;99.90
12588;DHT22;6359;51.450;7.346;2023-05-07T13:15:55;21.80;99.90
12588;DHT22;6359;51.450;7.346;2023-05-07T13:18:22;21.70;99.90
12588;DHT22;6359;51.450;7.346;2023-05-07T13:20:49;21.60;99.90
12588;DHT22;6359;51.450;7.346;2023-05-07T13:23:16;21.50;99.90
12588;DHT22;6359;51.450;7.346;2023-05-07T13:25:43;21.30;99.90
12588;DHT22;6359;51.450;7.346;2023-05-07T13:28:12;21.20;99.90
12588;DHT22;6359;51.450;7.346;2023-05-07T13:30:39;21.10;99.90
12588;DHT22;6359;51.450;7.346;2023-05-07T13:33:07;21.10;99.90
12588;DHT22;6359;51.450;7.346;2023-05-07T13:35:34;21.10;99.90
12588;DHT22;6359;51.450;7.346;2023-05-07T13:38:01;20.90;99.90
12588;DHT22;6359;51.450;7.346;2023-05-07T13:40:28;20.80;99.90
12588;DHT22;6359;51.450;7.346;2023-05-07T13:42:57;20.60;99.90
12588;DHT22;6359;51.450;7.346;2023-05-07T13:45:25;20.50;99.90
12588;DHT22;6359;51.450;7.346;2023-05-07T13:47:55;20.40;99.90
12588;DHT22;6359;51.450;7.346;2023-05-07T13:50:22;20.40;99.90
12588;DHT22;6359;51.450;7.346;2023-05-07T13:52:49;20.20;99.90
12588;DHT22;6359;51.450;7.346;2023-05-07T13:55:17;20.20;99.90
12588;DHT22;6359;51.450;7.346;2023-05-07T13:57:44;20.10;99.90
12588;DHT22;6359;51.450;7.346;2023-05-07T14:00:12;20.10;99.90
12588;DHT22;6359;51.450;7.346;2023-05-07T14:02:40;19.90;99.90
12588;DHT22;6359;51.450;7.346;2023-05-07T14:05:07;19.90;99.90
12588;DHT22;6359;51.450;7.346;2023-05-07T14:07:35;19.80;99.90
12588;DHT22;6359;51.450;7.346;2023-05-07T14:10:02;19.70;99.90
12588;DHT22;6359;51.450;7.346;2023-05-07T14:12:29;19.70;99.90
12588;DHT22;6359;51.450;7.346;2023-05-07T14:14:56;19.70;99.90
12588;DHT22;6359;51.450;7.346;2023-05-07T14:17:22;19.70;99.90
12588;DHT22;6359;51.450;7.346;2023-05-07T14:19:53;19.70;99.90
12588;DHT22;6359;51.450;7.346;2023-05-07T14:22:21;19.90;99.90
12588;DHT22;6359;51.450;7.346;2023-05-07T14:24:48;19.90;99.90
12588;DHT22;6359;51.450;7.346;2023-05-07T14:27:15;20.00;99.90
12588;DHT22;6359;51.450;7.346;2023-05-07T14:29:42;19.90;99.90
12588;DHT22;6359;51.450;7.346;2023-05-07T14:32:10;20.00;99.90
12588;DHT22;6359;51.450;7.346;2023-05-07T14:34:37;20.10;99.90
12588;DHT22;6359;51.450;7.346;2023-05-07T14:37:06;20.00;99.90
12588;DHT22;6359;51.450;7.346;2023-05-07T14:39:33;20.00;99.90
12588;DHT22;6359;51.450;7.346;2023-05-07T14:41:59;19.90;99.90
12588;DHT22;6359;51.450;7.346;2023-05-07T14:44:26;19.90;99.90
12588;DHT22;6359;51.450;7.346;2023-05-07T14:46:53;19.90;99.90
12588;DHT22;6359;51.450;7.346;2023-05-07T14:49:20;19.80;99.90
12588;DHT22;6359;51.450;7.346;2023-05-07T14:51:47;19.90;99.90
12588;DHT22;6359;51.450;7.346;2023-05-07T14:54:16;19.90;99.90
12588;DHT22;6359;51.450;7.346;2023-05-07T14:56:43;19.80;99.90
12588;DHT22;6359;51.450;7.346;2023-05-07T14:59:10;19.60;99.90
12588;DHT22;6359;51.450;7.346;2023-05-07T15:01:37;19.60;99.90
12588;DHT22;6359;51.450;7.346;2023-05-07T15:04:06;19.90;99.90
12588;DHT22;6359;51.450;7.346;2023-05-07T15:06:32;19.70;99.90
12588;DHT22;6359;51.450;7.346;2023-05-07T15:08:59;19.90;99.90
12588;DHT22;6359;51.450;7.346;2023-05-07T15:11:28;19.70;99.90
12588;DHT22;6359;51.450;7.346;2023-05-07T15:13:54;19.60;99.90
12588;DHT22;6359;51.450;7.346;2023-05-07T15:16:21;19.50;99.90
12588;DHT22;6359;51.450;7.346;2023-05-07T15:18:48;19.50;99.90
12588;DHT22;6359;51.450;7.346;2023-05-07T15:21:15;19.60;99.90
12588;DHT22;6359;51.450;7.346;2023-05-07T15:23:42;19.70;99.90
12588;DHT22;6359;51.450;7.346;2023-05-07T15:26:10;19.80;99.90
12588;DHT22;6359;51.450;7.346;2023-05-07T15:28:38;19.50;99.90
12588;DHT22;6359;51.450;7.346;2023-05-07T15:31:05;19.10;99.90
12588;DHT22;6359;51.450;7.346;2023-05-07T15:33:32;18.90;99.90
12588;DHT22;6359;51.450;7.346;2023-05-07T15:35:59;18.80;99.90
12588;DHT22;6359;51.450;7.346;2023-05-07T15:38:28;19.10;99.90
12588;DHT22;6359;51.450;7.346;2023-05-07T15:40:55;19.30;99.90
12588;DHT22;6359;51.450;7.346;2023-05-07T15:43:22;19.40;99.90
12588;DHT22;6359;51.450;7.346;2023-05-07T15:45:51;19.30;99.90
12588;DHT22;6359;51.450;7.346;2023-05-07T15:48:18;19.30;99.90
12588;DHT22;6359;51.450;7.346;2023-05-07T15:50:46;19.30;99.90